createdAt,value
2023-03-31T00:00:42.759Z,4.23
2023-03-31T00:03:11.259Z,4.87
2023-03-31T00:05:39.762Z,6.17
2023-03-31T00:08:09.429Z,4.93
2023-03-31T00:10:37.765Z,6.43
2023-03-31T00:13:07.546Z,4.90
2023-03-31T00:15:35.904Z,5.77
2023-03-31T00:18:04.333Z,5.97
2023-03-31T00:20:33.582Z,5.83
2023-03-31T00:23:02.497Z,5.87
2023-03-31T00:25:30.893Z,7.57
2023-03-31T00:27:59.258Z,6.00
2023-03-31T00:30:29.129Z,4.83
2023-03-31T00:32:57.611Z,6.57
2023-03-31T00:35:26.058Z,5.50
2023-03-31T00:37:57.930Z,3.63
2023-03-31T00:40:26.339Z,6.53
2023-03-31T00:42:55.072Z,6.03
2023-03-31T00:45:25.332Z,5.83
2023-03-31T00:47:56.080Z,4.60
2023-03-31T00:50:27.184Z,5.17
2023-03-31T00:52:57.954Z,3.90
2023-03-31T00:55:29.396Z,5.30
2023-03-31T00:57:57.959Z,4.63
2023-03-31T01:00:26.506Z,2.37
2023-03-31T01:02:59.207Z,4.77
2023-03-31T01:05:29.062Z,4.73
2023-03-31T01:07:58.008Z,6.77
2023-03-31T01:10:26.523Z,5.33
2023-03-31T01:12:56.179Z,7.27
2023-03-31T01:15:24.719Z,6.40
2023-03-31T01:17:56.076Z,5.73
2023-03-31T01:20:29.995Z,5.30
2023-03-31T01:23:13.157Z,4.67
2023-03-31T01:25:51.240Z,5.23
2023-03-31T01:28:22.675Z,3.53
2023-03-31T01:31:06.010Z,5.60
2023-03-31T01:33:47.042Z,6.20
2023-03-31T01:36:28.222Z,3.63
2023-03-31T01:39:15.360Z,2.40
2023-03-31T01:41:51.550Z,9.07
2023-03-31T01:44:24.909Z,3.93
2023-03-31T01:46:56.260Z,6.63
2023-03-31T01:49:26.961Z,5.20
2023-03-31T01:52:00.264Z,3.70
2023-03-31T01:54:32.137Z,6.37
2023-03-31T01:57:03.602Z,4.80
2023-03-31T01:59:36.096Z,6.33
2023-03-31T02:02:06.344Z,5.17
2023-03-31T02:04:35.961Z,5.07
2023-03-31T02:07:06.130Z,5.50
2023-03-31T02:09:36.886Z,4.60
2023-03-31T02:12:09.228Z,4.20
2023-03-31T02:14:39.401Z,4.73
2023-03-31T02:17:09.227Z,5.87
2023-03-31T02:19:40.277Z,3.23
2023-03-31T02:22:10.174Z,6.13
2023-03-31T02:24:39.338Z,4.03
2023-03-31T02:27:10.373Z,6.87
2023-03-31T02:29:38.888Z,7.30
2023-03-31T02:32:12.174Z,6.13
2023-03-31T02:34:40.557Z,9.90
2023-03-31T02:37:08.978Z,8.23
2023-03-31T02:39:38.380Z,4.20
2023-03-31T02:42:08.083Z,7.73
2023-03-31T02:44:39.480Z,7.90
2023-03-31T02:47:09.404Z,7.20
2023-03-31T02:49:38.444Z,7.13
2023-03-31T02:52:20.096Z,6.53
2023-03-31T02:55:05.310Z,7.30
2023-03-31T02:57:47.101Z,9.00
2023-03-31T03:00:21.304Z,8.97
2023-03-31T03:02:55.859Z,7.30
2023-03-31T03:05:27.176Z,5.93
2023-03-31T03:08:00.047Z,6.17
2023-03-31T03:10:32.443Z,7.33
2023-03-31T03:13:08.374Z,4.83
2023-03-31T03:15:39.429Z,5.53
2023-03-31T03:18:08.228Z,5.07
2023-03-31T03:20:36.902Z,6.47
2023-03-31T03:23:05.326Z,6.50
2023-03-31T03:25:34.240Z,8.80
2023-03-31T03:28:02.719Z,9.27
2023-03-31T03:30:31.153Z,7.67
2023-03-31T03:33:00.906Z,7.97
2023-03-31T03:35:29.350Z,10.33
2023-03-31T03:37:57.852Z,8.00
2023-03-31T03:40:26.232Z,6.73
2023-03-31T03:42:54.587Z,7.70
2023-03-31T03:45:22.980Z,6.00
2023-03-31T03:47:51.495Z,7.80
2023-03-31T03:50:21.280Z,8.57
2023-03-31T03:52:49.621Z,8.13
2023-03-31T03:55:18.325Z,7.90
2023-03-31T03:57:46.710Z,5.53
2023-03-31T04:00:15.345Z,7.57
2023-03-31T04:02:43.859Z,7.37
2023-03-31T04:05:12.472Z,6.40
2023-03-31T04:07:42.315Z,4.30
2023-03-31T04:10:11.254Z,5.23
2023-03-31T04:12:39.734Z,6.83
2023-03-31T04:15:08.687Z,6.40
2023-03-31T04:17:37.829Z,5.60
2023-03-31T04:20:09.440Z,4.03
2023-03-31T04:22:41.040Z,6.60
2023-03-31T04:25:15.079Z,6.17
2023-03-31T04:27:50.829Z,7.03
2023-03-31T04:30:23.717Z,6.90
2023-03-31T04:32:53.491Z,6.00
2023-03-31T04:35:22.238Z,6.20
2023-03-31T04:37:50.672Z,7.07
2023-03-31T04:40:20.693Z,7.23
2023-03-31T04:42:49.021Z,3.77
2023-03-31T04:45:17.502Z,6.83
2023-03-31T04:47:45.915Z,5.60
2023-03-31T04:50:16.950Z,5.50
2023-03-31T04:52:45.798Z,5.73
2023-03-31T04:55:14.165Z,5.13
2023-03-31T04:57:43.980Z,5.50
2023-03-31T05:00:13.039Z,1.73
2023-03-31T05:02:41.644Z,3.53
2023-03-31T05:05:10.934Z,3.87
2023-03-31T05:07:39.412Z,4.13
2023-03-31T05:10:08.139Z,6.27
2023-03-31T05:12:36.966Z,6.90
2023-03-31T05:15:07.647Z,6.80
2023-03-31T05:17:37.055Z,6.50
2023-03-31T05:20:08.141Z,7.83
2023-03-31T05:22:37.428Z,7.27
2023-03-31T05:25:07.127Z,7.17
2023-03-31T05:27:36.040Z,7.33
2023-03-31T05:30:05.777Z,5.87
2023-03-31T05:32:35.591Z,8.50
2023-03-31T05:35:05.856Z,8.83
2023-03-31T05:37:34.314Z,5.43
2023-03-31T05:40:04.676Z,8.80
2023-03-31T05:42:33.027Z,10.00
2023-03-31T05:45:01.422Z,9.53
2023-03-31T05:47:29.875Z,10.63
2023-03-31T05:49:59.705Z,9.73
2023-03-31T05:52:28.292Z,8.33
2023-03-31T05:54:56.734Z,9.63
2023-03-31T05:57:25.297Z,10.70
2023-03-31T05:59:53.720Z,8.40
2023-03-31T06:02:22.574Z,8.23
2023-03-31T06:04:52.102Z,7.70
2023-03-31T06:07:22.340Z,7.20
2023-03-31T06:09:50.804Z,7.77
2023-03-31T06:12:19.268Z,8.30
2023-03-31T06:14:47.699Z,8.57
2023-03-31T06:17:16.390Z,6.93
2023-03-31T06:19:44.780Z,5.83
2023-03-31T06:22:13.285Z,4.40
2023-03-31T06:24:43.099Z,5.03
2023-03-31T06:27:11.573Z,4.00
2023-03-31T06:29:40.028Z,4.70
2023-03-31T06:32:08.616Z,5.60
2023-03-31T06:34:37.173Z,4.63
2023-03-31T06:37:05.552Z,3.87
2023-03-31T06:39:33.971Z,6.70
2023-03-31T06:42:03.804Z,6.73
2023-03-31T06:44:32.437Z,6.00
2023-03-31T06:47:01.014Z,6.70
2023-03-31T06:49:29.385Z,6.50
2023-03-31T06:51:58.054Z,4.30
2023-03-31T06:54:26.466Z,6.03
2023-03-31T06:56:54.841Z,4.50
2023-03-31T06:59:24.603Z,4.33
2023-03-31T07:01:53.159Z,3.33
2023-03-31T07:04:21.657Z,3.63
2023-03-31T07:06:50.221Z,5.17
2023-03-31T07:09:21.370Z,5.13
2023-03-31T07:11:49.769Z,5.33
2023-03-31T07:14:18.369Z,6.43
2023-03-31T07:16:48.408Z,4.83
2023-03-31T07:19:16.999Z,4.27
2023-03-31T07:21:45.832Z,3.97
2023-03-31T07:24:14.253Z,6.87
2023-03-31T07:26:42.733Z,3.27
2023-03-31T07:29:11.275Z,3.27
2023-03-31T07:31:39.776Z,3.17
2023-03-31T07:34:09.570Z,4.20
2023-03-31T07:36:38.138Z,3.87
2023-03-31T07:39:07.714Z,3.63
2023-03-31T07:41:37.753Z,5.43
2023-03-31T07:44:06.261Z,3.60
2023-03-31T07:46:34.755Z,5.17
2023-03-31T07:49:07.476Z,4.37
2023-03-31T07:51:37.343Z,4.80
2023-03-31T07:54:05.829Z,4.60
2023-03-31T07:56:34.300Z,4.07
2023-03-31T07:59:02.768Z,5.27
2023-03-31T08:01:31.249Z,5.40
2023-03-31T08:04:01.053Z,4.67
2023-03-31T08:06:30.244Z,4.80
2023-03-31T08:09:00.756Z,5.47
2023-03-31T08:11:29.240Z,4.23
2023-03-31T08:13:57.722Z,4.77
2023-03-31T08:16:26.287Z,4.43
2023-03-31T08:18:54.708Z,5.20
2023-03-31T08:21:24.520Z,3.27
2023-03-31T08:23:55.350Z,3.53
2023-03-31T08:26:25.617Z,3.93
2023-03-31T08:28:54.601Z,3.93
2023-03-31T08:31:27.463Z,4.90
2023-03-31T08:33:56.332Z,4.10
2023-03-31T08:36:24.928Z,3.93
2023-03-31T08:38:54.203Z,4.47
2023-03-31T08:41:29.471Z,4.60
2023-03-31T08:43:59.181Z,3.53
2023-03-31T08:46:30.635Z,3.73
2023-03-31T08:49:01.292Z,5.40
2023-03-31T08:51:31.190Z,3.63
2023-03-31T08:54:03.067Z,3.80
2023-03-31T08:56:37.916Z,3.10
2023-03-31T08:59:07.094Z,3.43
2023-03-31T09:01:52.230Z,3.70
2023-03-31T09:04:28.304Z,3.23
2023-03-31T09:07:02.363Z,2.50
2023-03-31T09:09:35.767Z,3.37
2023-03-31T09:12:07.966Z,4.40
2023-03-31T09:14:39.001Z,4.70
2023-03-31T09:17:16.213Z,4.73
2023-03-31T09:19:47.106Z,3.57
2023-03-31T09:22:19.206Z,5.77
2023-03-31T09:24:52.355Z,3.57
2023-03-31T09:27:22.903Z,4.70
2023-03-31T09:29:53.025Z,4.77
2023-03-31T09:32:22.867Z,4.53
2023-03-31T09:34:53.927Z,5.03
2023-03-31T09:37:22.390Z,4.73
2023-03-31T09:39:50.957Z,3.90
2023-03-31T09:42:20.435Z,5.20
2023-03-31T09:44:51.489Z,5.97
2023-03-31T09:47:22.898Z,4.23
2023-03-31T09:49:54.077Z,4.87
2023-03-31T09:52:27.920Z,3.70
2023-03-31T09:54:57.780Z,3.37
2023-03-31T09:57:28.959Z,2.63
2023-03-31T10:00:13.745Z,3.70
2023-03-31T10:02:45.739Z,3.27
2023-03-31T10:05:23.931Z,3.70
2023-03-31T10:07:52.297Z,3.37
2023-03-31T10:10:28.719Z,3.37
2023-03-31T10:12:57.268Z,1.57
2023-03-31T10:15:30.405Z,3.00
2023-03-31T10:18:00.594Z,2.93
2023-03-31T10:20:36.109Z,1.70
2023-03-31T10:23:05.768Z,4.03
2023-03-31T10:25:36.046Z,3.83
2023-03-31T10:28:05.097Z,3.30
2023-03-31T10:30:38.421Z,3.20
2023-03-31T10:33:21.931Z,3.77
2023-03-31T10:35:52.079Z,2.80
2023-03-31T10:38:27.137Z,4.70
2023-03-31T10:40:57.011Z,4.27
2023-03-31T10:43:28.087Z,4.03
2023-03-31T10:45:58.773Z,4.87
2023-03-31T10:48:28.416Z,4.73
2023-03-31T10:51:00.610Z,4.73
2023-03-31T10:53:29.539Z,3.03
2023-03-31T10:56:03.938Z,4.97
2023-03-31T10:59:02.038Z,5.20
2023-03-31T11:01:40.816Z,5.20
2023-03-31T11:04:24.375Z,4.27
2023-03-31T11:06:57.727Z,4.90
2023-03-31T11:09:36.867Z,4.20
2023-03-31T11:12:10.055Z,4.23
2023-03-31T11:14:43.003Z,5.20
2023-03-31T11:17:20.065Z,1.80
2023-03-31T11:19:54.448Z,2.90
2023-03-31T11:22:28.000Z,2.50
2023-03-31T11:25:14.247Z,1.77
2023-03-31T11:27:52.578Z,2.97
2023-03-31T11:30:24.371Z,3.13
2023-03-31T11:33:01.224Z,2.67
2023-03-31T11:35:43.639Z,3.67
2023-03-31T11:38:23.431Z,2.87
2023-03-31T11:40:56.608Z,3.50
2023-03-31T11:43:28.602Z,2.10
2023-03-31T11:46:01.172Z,3.17
2023-03-31T11:48:34.214Z,2.97
2023-03-31T11:51:04.195Z,3.30
2023-03-31T11:53:34.298Z,3.13
2023-03-31T11:56:05.247Z,4.10
2023-03-31T11:58:37.312Z,4.00
2023-03-31T12:01:08.863Z,3.67
2023-03-31T12:03:41.519Z,2.57
2023-03-31T12:06:17.732Z,2.17
2023-03-31T12:08:49.456Z,3.50
2023-03-31T12:11:21.685Z,3.17
2023-03-31T12:13:53.226Z,3.80
2023-03-31T12:16:24.071Z,5.73
2023-03-31T12:18:59.460Z,4.33
2023-03-31T12:21:29.143Z,3.67
2023-03-31T12:23:57.583Z,3.73
2023-03-31T12:26:36.327Z,3.43
2023-03-31T12:29:07.742Z,3.07
2023-03-31T12:31:37.904Z,3.40
2023-03-31T12:34:10.707Z,3.27
2023-03-31T12:36:47.644Z,3.90
2023-03-31T12:39:23.368Z,2.80
2023-03-31T12:42:00.593Z,3.57
2023-03-31T12:44:36.229Z,1.63
2023-03-31T12:47:23.552Z,3.33
2023-03-31T12:50:01.853Z,1.63
2023-03-31T12:52:35.345Z,2.73
2023-03-31T12:55:10.793Z,3.07
2023-03-31T12:57:39.225Z,2.93
2023-03-31T13:00:24.478Z,3.50
2023-03-31T13:02:53.518Z,3.20
2023-03-31T13:05:40.700Z,2.43
2023-03-31T13:08:11.607Z,3.03
2023-03-31T13:10:55.081Z,3.97
2023-03-31T13:13:23.793Z,1.13
2023-03-31T13:15:53.124Z,3.30
2023-03-31T13:18:22.779Z,3.20
2023-03-31T13:23:37.337Z,3.87
2023-03-31T13:26:07.106Z,4.03
2023-03-31T13:28:37.224Z,3.87
2023-03-31T13:31:06.413Z,2.83
2023-03-31T13:33:37.218Z,3.30
2023-03-31T13:36:16.163Z,3.43
2023-03-31T13:38:53.187Z,3.13
2023-03-31T13:41:28.418Z,3.87
2023-03-31T13:44:21.197Z,2.20
2023-03-31T13:46:52.449Z,2.90
2023-03-31T13:49:35.770Z,3.80
2023-03-31T13:52:05.480Z,3.10
2023-03-31T13:54:54.612Z,3.27
2023-03-31T13:57:46.266Z,2.40
2023-03-31T14:00:29.225Z,2.40
2023-03-31T14:03:02.367Z,2.93
2023-03-31T14:05:32.537Z,1.40
2023-03-31T14:08:02.584Z,1.97
2023-03-31T14:10:33.028Z,2.07
2023-03-31T14:13:10.353Z,2.87
2023-03-31T14:15:39.731Z,1.80
2023-03-31T14:18:09.078Z,2.30
2023-03-31T14:20:54.545Z,2.87
2023-03-31T14:23:28.652Z,2.77
2023-03-31T14:26:03.417Z,2.87
2023-03-31T14:28:46.912Z,2.40
2023-03-31T14:31:21.669Z,2.47
2023-03-31T14:33:56.826Z,3.67
2023-03-31T14:36:30.695Z,3.33
2023-03-31T14:39:04.184Z,1.43
2023-03-31T14:41:32.868Z,2.30
2023-03-31T14:44:04.830Z,2.37
2023-03-31T14:46:34.128Z,2.63
2023-03-31T14:49:08.165Z,2.70
2023-03-31T14:51:36.625Z,2.20
2023-03-31T14:54:05.119Z,2.90
2023-03-31T14:56:36.279Z,2.80
2023-03-31T14:59:07.502Z,3.63
2023-03-31T15:01:38.145Z,2.77
2023-03-31T15:04:09.125Z,3.83
2023-03-31T15:06:39.933Z,3.10
2023-03-31T15:09:08.723Z,3.53
2023-03-31T15:11:37.120Z,2.27
2023-03-31T15:14:06.995Z,3.30
2023-03-31T15:16:42.350Z,3.80
2023-03-31T15:19:15.620Z,3.00
2023-03-31T15:21:44.529Z,4.00
2023-03-31T15:24:14.121Z,4.37
2023-03-31T15:26:46.801Z,4.67
2023-03-31T15:29:19.603Z,5.80
2023-03-31T15:31:48.325Z,5.13
2023-03-31T15:34:17.586Z,5.90
2023-03-31T15:36:50.274Z,3.63
2023-03-31T15:39:22.194Z,5.63
2023-03-31T15:41:51.687Z,5.10
2023-03-31T15:44:37.808Z,5.87
2023-03-31T15:47:19.412Z,7.10
2023-03-31T15:49:49.422Z,5.13
2023-03-31T15:52:22.295Z,5.47
2023-03-31T15:54:51.303Z,5.57
2023-03-31T15:57:19.926Z,3.03
2023-03-31T15:59:55.517Z,6.70
2023-03-31T16:02:26.788Z,7.07
2023-03-31T16:04:57.367Z,7.27
2023-03-31T16:07:27.304Z,7.17
2023-03-31T16:09:58.368Z,6.90
2023-03-31T16:12:28.284Z,8.20
2023-03-31T16:14:59.911Z,7.27
2023-03-31T16:17:32.150Z,6.90
2023-03-31T16:20:03.364Z,7.17
2023-03-31T16:22:35.429Z,6.87
2023-03-31T16:25:03.837Z,4.93
2023-03-31T16:27:32.335Z,8.07
2023-03-31T16:30:07.637Z,8.73
2023-03-31T16:32:37.483Z,7.13
2023-03-31T16:35:07.007Z,8.90
2023-03-31T16:37:35.509Z,6.87
2023-03-31T16:40:05.089Z,7.37
2023-03-31T16:42:33.482Z,6.40
2023-03-31T16:45:13.905Z,8.10
2023-03-31T16:47:45.746Z,5.40
2023-03-31T16:50:15.683Z,6.20
2023-03-31T16:52:44.210Z,5.40
2023-03-31T16:55:12.643Z,5.33
2023-03-31T16:57:41.011Z,6.73
2023-03-31T17:00:10.651Z,5.50
2023-03-31T17:02:39.146Z,5.63
2023-03-31T17:07:58.046Z,5.70
2023-03-31T17:10:26.647Z,4.20
2023-03-31T17:12:54.979Z,5.20
2023-03-31T17:15:23.465Z,5.13
2023-03-31T17:17:52.364Z,5.17
2023-03-31T17:20:22.485Z,6.37
2023-03-31T17:22:50.851Z,5.93
2023-03-31T17:25:19.964Z,5.37
2023-03-31T17:27:48.713Z,5.57
2023-03-31T17:30:17.252Z,4.40
2023-03-31T17:32:45.761Z,3.43
2023-03-31T17:35:20.582Z,4.07
2023-03-31T17:37:53.504Z,2.83
2023-03-31T17:40:21.995Z,4.40
2023-03-31T17:42:50.582Z,7.07
2023-03-31T17:45:21.683Z,4.73
2023-03-31T17:47:50.219Z,6.00
2023-03-31T17:50:19.618Z,5.60
2023-03-31T17:52:48.052Z,4.07
2023-03-31T17:55:18.020Z,6.33
2023-03-31T17:57:46.479Z,6.73
2023-03-31T18:00:16.583Z,5.50
2023-03-31T18:02:45.455Z,6.23
2023-03-31T18:05:15.220Z,5.77
2023-03-31T18:07:44.748Z,4.73
2023-03-31T18:10:13.159Z,7.40
2023-03-31T18:12:42.847Z,6.00
2023-03-31T18:15:11.700Z,6.67
2023-03-31T18:17:40.165Z,7.37
2023-03-31T18:20:09.927Z,7.27
2023-03-31T18:22:38.299Z,7.27
2023-03-31T18:25:06.980Z,5.27
2023-03-31T18:27:35.309Z,7.03
2023-03-31T18:30:06.130Z,4.00
2023-03-31T18:32:34.613Z,6.97
2023-03-31T18:35:03.418Z,6.67
2023-03-31T18:37:31.774Z,6.50
2023-03-31T18:40:00.203Z,5.50
2023-03-31T18:42:28.772Z,6.03
2023-03-31T18:44:57.630Z,6.57
2023-03-31T18:47:27.529Z,3.93
2023-03-31T18:49:56.480Z,5.30
2023-03-31T18:52:24.857Z,3.00
2023-03-31T18:54:53.222Z,1.73
2023-03-31T18:57:22.050Z,4.33
2023-03-31T18:59:50.416Z,4.77
2023-03-31T19:02:18.902Z,6.20
2023-03-31T19:04:49.869Z,6.90
2023-03-31T19:07:18.685Z,6.07
2023-03-31T19:09:47.006Z,6.07
2023-03-31T19:12:15.444Z,6.10
2023-03-31T19:14:44.050Z,6.27
2023-03-31T19:17:12.921Z,6.60
2023-03-31T19:19:41.476Z,7.53
2023-03-31T19:22:12.036Z,5.93
2023-03-31T19:24:41.045Z,6.03
2023-03-31T19:27:09.519Z,7.37
2023-03-31T19:29:37.893Z,5.70
2023-03-31T19:32:06.452Z,6.63
2023-03-31T19:34:34.886Z,3.57
2023-03-31T19:37:04.141Z,7.10
2023-03-31T19:39:33.969Z,4.80
2023-03-31T19:42:02.643Z,4.87
2023-03-31T19:44:31.206Z,7.07
2023-03-31T19:46:59.587Z,6.63
2023-03-31T19:49:28.279Z,6.47
2023-03-31T19:51:56.950Z,5.53
2023-03-31T19:54:25.741Z,5.83
2023-03-31T19:56:55.562Z,6.47
2023-03-31T19:59:23.930Z,4.70
2023-03-31T20:01:52.313Z,7.63
2023-03-31T20:04:21.145Z,9.50
2023-03-31T20:06:49.734Z,8.60
2023-03-31T20:09:18.367Z,8.30
2023-03-31T20:11:47.361Z,6.47
2023-03-31T20:14:17.516Z,8.47
2023-03-31T20:16:46.367Z,7.53
2023-03-31T20:19:16.404Z,6.07
2023-03-31T20:21:45.120Z,7.07
2023-03-31T20:24:16.581Z,5.43
2023-03-31T20:26:45.412Z,7.30
2023-03-31T20:29:13.815Z,8.07
2023-03-31T20:31:43.701Z,8.23
2023-03-31T20:34:14.120Z,7.20
2023-03-31T20:36:42.960Z,6.23
2023-03-31T20:39:12.265Z,5.57
2023-03-31T20:41:40.748Z,5.43
2023-03-31T20:44:12.744Z,9.23
2023-03-31T20:46:44.627Z,9.13
2023-03-31T20:49:13.349Z,9.13
2023-03-31T20:51:42.664Z,8.03
2023-03-31T20:54:11.079Z,2.50
2023-03-31T20:56:40.489Z,9.07
2023-03-31T20:59:09.471Z,4.97
2023-03-31T21:01:38.461Z,2.83
2023-03-31T21:04:09.847Z,6.90
2023-03-31T21:06:39.069Z,10.70
2023-03-31T21:09:07.754Z,8.00
2023-03-31T21:11:36.110Z,3.83
2023-03-31T21:14:05.796Z,9.40
2023-03-31T21:16:34.530Z,6.37
2023-03-31T21:19:02.913Z,7.03
2023-03-31T21:21:33.707Z,1.17
2023-03-31T21:24:02.148Z,9.80
2023-03-31T21:26:30.547Z,10.43
2023-03-31T21:28:58.935Z,4.53
2023-03-31T21:31:27.722Z,5.97
2023-03-31T21:33:57.728Z,7.07
2023-03-31T21:36:26.766Z,10.13
2023-03-31T21:38:57.548Z,9.00
2023-03-31T21:41:27.181Z,6.20
2023-03-31T21:43:55.838Z,8.03
2023-03-31T21:46:24.862Z,11.27
2023-03-31T21:48:53.341Z,11.47
2023-03-31T21:51:22.967Z,10.83
2023-03-31T21:53:53.050Z,10.47
2023-03-31T21:56:22.920Z,8.87
2023-03-31T21:58:51.982Z,8.47
2023-03-31T22:01:21.673Z,10.10
2023-03-31T22:03:50.306Z,11.67
2023-03-31T22:06:18.753Z,10.43
2023-03-31T22:08:47.274Z,5.20
2023-03-31T22:11:15.963Z,11.37
2023-03-31T22:13:45.733Z,7.00
2023-03-31T22:16:18.508Z,9.17
2023-03-31T22:18:48.183Z,7.77
2023-03-31T22:21:17.592Z,5.10
2023-03-31T22:23:46.523Z,11.77
2023-03-31T22:26:15.552Z,12.23
2023-03-31T22:28:43.903Z,12.17
2023-03-31T22:31:13.731Z,11.87
2023-03-31T22:33:42.206Z,8.90
2023-03-31T22:36:10.872Z,6.43
2023-03-31T22:38:39.849Z,4.53
2023-03-31T22:41:08.200Z,6.73
2023-03-31T22:43:36.560Z,6.33
2023-03-31T22:46:05.902Z,7.87
2023-03-31T22:48:36.148Z,9.97
2023-03-31T22:51:05.844Z,11.90
2023-03-31T22:53:34.449Z,8.40
2023-03-31T22:56:05.433Z,8.47
2023-03-31T22:58:33.950Z,8.40
2023-03-31T23:01:02.997Z,9.17
2023-03-31T23:03:31.668Z,15.00
2023-03-31T23:06:05.523Z,8.30
2023-03-31T23:08:35.796Z,8.90
2023-03-31T23:11:05.108Z,11.03
2023-03-31T23:13:33.784Z,6.03
2023-03-31T23:16:04.620Z,13.27
2023-03-31T23:18:32.994Z,17.93
2023-03-31T23:21:02.626Z,5.53
2023-03-31T23:23:32.468Z,13.17
2023-03-31T23:26:01.986Z,4.43
2023-03-31T23:28:30.316Z,10.87
2023-03-31T23:30:59.250Z,15.83
2023-03-31T23:33:28.153Z,10.60
2023-03-31T23:36:00.417Z,7.13
2023-03-31T23:38:28.866Z,1.47
2023-03-31T23:40:58.906Z,4.93
2023-03-31T23:43:27.914Z,0.60
2023-03-31T23:45:56.534Z,4.17
2023-03-31T23:48:25.006Z,1.17
2023-03-31T23:50:53.369Z,3.23
2023-03-31T23:53:22.025Z,9.10
2023-03-31T23:55:56.556Z,9.13
2023-03-31T23:58:26.579Z,3.17
